Time;durP1;ratioP1;P1;durP2;ratioP2;P2;SDS_P1;SDS_P2;PMS_P1;PMS_P2;Temp;Humidity;BMP_temperature;BMP_pressure;BME280_temperature;BME280_humidity;BME280_pressure;Samples;Min_cycle;Max_cycle;Signal;HPM_P1;HPM_P2
2022/09/21 00:00:38;;;;;;;11.75;4.90;;;6.20;99.90;;;;;;5028631;28;20116;-66
2022/09/21 00:03:04;;;;;;;9.55;4.88;;;6.10;99.90;;;;;;5027852;28;20041;-72
2022/09/21 00:05:31;;;;;;;10.63;4.90;;;6.20;99.90;;;;;;5029008;28;20091;-66
2022/09/21 00:08:00;;;;;;;11.32;5.05;;;6.10;99.90;;;;;;5028230;28;20103;-65
2022/09/21 00:10:25;;;;;;;12.95;5.32;;;6.00;99.90;;;;;;5025410;28;20029;-66
2022/09/21 00:12:52;;;;;;;8.43;4.75;;;5.90;99.90;;;;;;5027883;28;20037;-67
2022/09/21 00:15:18;;;;;;;9.10;4.32;;;5.90;99.90;;;;;;5028147;28;20061;-69
2022/09/21 00:17:45;;;;;;;9.48;4.88;;;5.90;99.90;;;;;;5027967;28;20075;-66
2022/09/21 00:20:11;;;;;;;10.32;4.88;;;5.90;99.90;;;;;;5028061;28;20040;-66
2022/09/21 00:22:37;;;;;;;11.25;5.53;;;5.80;99.90;;;;;;5028052;28;20041;-66
2022/09/21 00:25:03;;;;;;;11.68;5.00;;;5.80;99.90;;;;;;5028593;28;20029;-68
2022/09/21 00:27:30;;;;;;;11.90;4.72;;;5.70;99.90;;;;;;5026977;28;20045;-69
2022/09/21 00:29:56;;;;;;;10.32;5.13;;;5.60;99.90;;;;;;5028282;28;20049;-65
2022/09/21 00:32:26;;;;;;;13.35;5.85;;;5.50;99.90;;;;;;5027261;28;20065;-67
2022/09/21 00:34:52;;;;;;;12.63;5.40;;;5.40;99.90;;;;;;5027549;28;20037;-66
2022/09/21 00:37:20;;;;;;;10.02;5.30;;;5.40;99.90;;;;;;5016683;28;20041;-68
2022/09/21 00:39:46;;;;;;;11.93;5.35;;;5.30;99.90;;;;;;5009932;28;20037;-67
2022/09/21 00:42:19;;;;;;;7.53;4.47;;;5.30;99.90;;;;;;5020426;28;20537;-68
2022/09/21 00:44:45;;;;;;;10.43;4.93;;;5.40;99.90;;;;;;5028655;28;20410;-66
2022/09/21 00:47:16;;;;;;;10.73;4.88;;;5.40;99.90;;;;;;5027773;28;20036;-67
2022/09/21 00:49:44;;;;;;;9.75;4.78;;;5.30;99.90;;;;;;5029276;28;20034;-68
2022/09/21 00:52:13;;;;;;;25.80;5.32;;;5.20;99.90;;;;;;5028883;28;20060;-72
2022/09/21 00:54:48;;;;;;;72.15;5.78;;;5.20;99.90;;;;;;5028785;28;20025;-66
2022/09/21 00:57:15;;;;;;;45.55;4.93;;;5.20;99.90;;;;;;5027569;28;20032;-66
2022/09/21 00:59:43;;;;;;;27.58;4.90;;;5.20;99.90;;;;;;5026438;28;20756;-66
2022/09/21 01:02:08;;;;;;;14.57;4.47;;;5.20;99.90;;;;;;5027014;28;20103;-72
2022/09/21 01:04:35;;;;;;;16.77;4.43;;;5.20;99.90;;;;;;5028094;28;20486;-66
2022/09/21 01:07:04;;;;;;;9.38;4.55;;;5.20;99.90;;;;;;5026477;28;20509;-70
2022/09/21 01:09:30;;;;;;;10.40;4.45;;;5.10;99.90;;;;;;5018158;28;20069;-65
2022/09/21 01:11:56;;;;;;;9.50;4.45;;;5.00;99.90;;;;;;5027969;28;20038;-67
2022/09/21 01:14:24;;;;;;;15.40;5.32;;;5.00;99.90;;;;;;5027000;28;20107;-67
2022/09/21 01:17:01;;;;;;;10.63;4.47;;;5.10;99.90;;;;;;5027325;28;20033;-67
2022/09/21 01:19:49;;;;;;;10.25;4.78;;;5.10;99.90;;;;;;5026431;28;20034;-66
2022/09/21 01:22:32;;;;;;;9.98;4.57;;;5.10;99.90;;;;;;5027503;28;20054;-65
2022/09/21 01:25:20;;;;;;;9.57;4.78;;;5.10;99.90;;;;;;5026388;28;20083;-66
2022/09/21 01:28:11;;;;;;;8.68;4.50;;;5.10;99.90;;;;;;5028042;28;20099;-66
2022/09/21 01:30:37;;;;;;;;;;;5.10;99.90;;;;;;5029441;28;20033;-66
2022/09/21 01:33:34;;;;;;;7.78;4.13;;;5.10;99.90;;;;;;5027931;28;19924;-66
2022/09/21 01:36:06;;;;;;;13.23;4.55;;;5.10;99.90;;;;;;5027642;28;20072;-66
2022/09/21 01:38:39;;;;;;;14.60;4.40;;;5.00;99.90;;;;;;5017400;28;20026;-65
2022/09/21 01:41:08;;;;;;;34.00;5.20;;;5.10;99.90;;;;;;5030673;28;20533;-65
2022/09/21 01:43:37;;;;;;;15.00;4.38;;;5.10;99.90;;;;;;5025155;28;20153;-65
2022/09/21 01:46:06;;;;;;;54.67;5.00;;;5.10;99.90;;;;;;5030210;28;20033;-68
2022/09/21 01:48:37;;;;;;;21.48;4.85;;;5.00;99.90;;;;;;5029680;28;20760;-66
2022/09/21 01:51:08;;;;;;;18.80;4.63;;;4.90;99.90;;;;;;5030096;28;20111;-69
2022/09/21 01:53:38;;;;;;;13.60;4.70;;;4.90;99.90;;;;;;5026874;28;20030;-66
2022/09/21 01:56:10;;;;;;;18.63;4.50;;;5.00;99.90;;;;;;5030093;28;20116;-66
2022/09/21 01:58:52;;;;;;;20.83;4.93;;;5.00;99.90;;;;;;5031135;28;20033;-65
2022/09/21 02:01:21;;;;;;;15.00;3.95;;;5.00;99.90;;;;;;5028699;28;20091;-68
2022/09/21 02:03:56;;;;;;;11.18;4.43;;;5.00;99.90;;;;;;5031039;28;20038;-66
2022/09/21 02:06:25;;;;;;;12.48;4.47;;;5.00;99.90;;;;;;5029109;28;20083;-66
2022/09/21 02:08:51;;;;;;;11.37;4.37;;;4.80;99.90;;;;;;5031373;28;20516;-66
2022/09/21 02:11:18;;;;;;;9.13;4.82;;;4.70;99.90;;;;;;5030307;28;20288;-69
2022/09/21 02:13:45;;;;;;;11.70;4.38;;;4.70;99.90;;;;;;5032087;28;20029;-66
2022/09/21 02:16:20;;;;;;;10.93;4.07;;;4.70;99.90;;;;;;5031916;28;20036;-72
2022/09/21 02:19:10;;;;;;;18.73;5.28;;;4.70;99.90;;;;;;5032135;28;20033;-66
2022/09/21 02:21:52;;;;;;;71.32;5.75;;;4.70;99.90;;;;;;5012820;28;20136;-66
2022/09/21 02:24:23;;;;;;;26.17;4.13;;;4.70;99.90;;;;;;5016367;28;20034;-66
2022/09/21 02:27:01;;;;;;;36.47;4.35;;;4.70;99.90;;;;;;5031793;28;20075;-64
2022/09/21 02:29:39;;;;;;;261.15;7.72;;;4.80;99.90;;;;;;5029353;28;20045;-66
2022/09/21 02:32:22;;;;;;;40.08;4.55;;;4.80;99.90;;;;;;5031428;28;20092;-64
2022/09/21 02:35:14;;;;;;;45.10;4.72;;;4.90;99.90;;;;;;5032001;28;20489;-66
2022/09/21 02:37:48;;;;;;;43.65;4.28;;;4.90;99.90;;;;;;5049727;28;20051;-66
2022/09/21 02:40:42;;;;;;;8.30;4.45;;;4.80;99.90;;;;;;5051467;28;20021;-72
2022/09/21 02:43:26;;;;;;;8.95;4.18;;;4.80;99.90;;;;;;5031363;28;20029;-67
2022/09/21 02:46:05;;;;;;;17.83;4.72;;;4.80;99.90;;;;;;5025292;28;20107;-68
2022/09/21 02:48:48;;;;;;;16.38;4.43;;;4.70;99.90;;;;;;5029584;28;20037;-66
2022/09/21 02:51:22;;;;;;;48.50;4.40;;;4.70;99.90;;;;;;5028822;28;20489;-72
2022/09/21 02:53:50;;;;;;;28.52;4.25;;;4.70;99.90;;;;;;5031241;28;20041;-67
2022/09/21 02:56:17;;;;;;;31.30;4.15;;;4.80;99.90;;;;;;5028993;28;20029;-71
2022/09/21 02:58:55;;;;;;;13.02;4.15;;;4.80;99.90;;;;;;5030820;28;20039;-69
2022/09/21 03:01:23;;;;;;;22.27;4.50;;;4.80;99.90;;;;;;5029186;28;20482;-67
2022/09/21 03:03:49;;;;;;;20.42;4.15;;;4.80;99.90;;;;;;5029495;28;20026;-66
2022/09/21 03:06:14;;;;;;;10.82;4.30;;;4.80;99.90;;;;;;5030123;28;20025;-73
2022/09/21 03:08:40;;;;;;;10.98;3.85;;;4.70;99.90;;;;;;5027728;28;20076;-67
2022/09/21 03:11:06;;;;;;;29.40;4.45;;;4.70;99.90;;;;;;5029680;28;20052;-72
2022/09/21 03:13:32;;;;;;;93.80;4.75;;;4.70;99.90;;;;;;5026557;28;20034;-71
2022/09/21 03:16:04;;;;;;;109.85;5.35;;;4.80;99.90;;;;;;5028745;28;20037;-68
2022/09/21 03:18:30;;;;;;;91.55;4.47;;;4.80;99.90;;;;;;5030167;28;20053;-68
2022/09/21 03:20:56;;;;;;;8.50;3.00;;;4.90;99.90;;;;;;5030702;28;20033;-68
2022/09/21 03:23:22;;;;;;;36.30;3.17;;;4.70;99.90;;;;;;5028747;28;20103;-67
2022/09/21 03:25:48;;;;;;;116.22;3.92;;;4.50;99.90;;;;;;5030890;28;20067;-68
2022/09/21 03:28:14;;;;;;;6.72;3.10;;;4.50;99.90;;;;;;5030669;28;20026;-69
2022/09/21 03:30:40;;;;;;;20.35;3.65;;;4.40;99.90;;;;;;5029667;28;20561;-69
2022/09/21 03:33:07;;;;;;;13.82;3.83;;;4.40;99.90;;;;;;5030394;28;20056;-69
2022/09/21 03:35:33;;;;;;;10.00;3.40;;;4.40;99.90;;;;;;5029969;28;20083;-68
2022/09/21 03:37:59;;;;;;;11.73;3.60;;;4.30;99.90;;;;;;5030805;28;20034;-66
2022/09/21 03:40:26;;;;;;;6.47;3.35;;;4.40;99.90;;;;;;5029814;28;20029;-66
2022/09/21 03:42:52;;;;;;;8.88;4.32;;;4.30;99.90;;;;;;5030506;28;20052;-66
2022/09/21 03:45:17;;;;;;;15.48;4.10;;;4.30;99.90;;;;;;5030004;28;20026;-72
2022/09/21 03:47:43;;;;;;;8.20;3.47;;;4.20;99.90;;;;;;5029714;28;20373;-69
2022/09/21 03:50:11;;;;;;;12.30;3.72;;;4.20;99.90;;;;;;5030268;28;20041;-68
2022/09/21 03:52:38;;;;;;;10.48;3.30;;;4.10;99.90;;;;;;5029665;28;20025;-68
2022/09/21 03:55:05;;;;;;;6.95;3.60;;;4.10;99.90;;;;;;5030350;28;20025;-68
2022/09/21 03:57:33;;;;;;;7.72;3.13;;;4.10;99.90;;;;;;5029562;28;20080;-69
2022/09/21 03:59:59;;;;;;;8.50;2.90;;;4.10;99.90;;;;;;5030406;28;20481;-67
2022/09/21 04:02:25;;;;;;;9.77;3.53;;;4.00;99.90;;;;;;5029273;28;20033;-67
2022/09/21 04:04:50;;;;;;;17.70;3.00;;;4.00;99.90;;;;;;5030456;28;20033;-68
2022/09/21 04:07:16;;;;;;;59.42;3.90;;;4.00;99.90;;;;;;5029873;28;20105;-70
2022/09/21 04:09:42;;;;;;;6.43;2.97;;;4.10;99.90;;;;;;5029166;28;20076;-68
2022/09/21 04:12:07;;;;;;;17.25;3.33;;;4.20;99.90;;;;;;5030396;28;20026;-69
2022/09/21 04:14:33;;;;;;;5.90;3.03;;;4.20;99.90;;;;;;5029074;28;20032;-70
2022/09/21 04:16:59;;;;;;;52.58;4.25;;;4.10;99.90;;;;;;5045214;28;20025;-68
2022/09/21 04:19:25;;;;;;;14.18;3.30;;;4.10;99.90;;;;;;5029124;28;20108;-68
2022/09/21 04:21:51;;;;;;;23.42;4.53;;;4.00;99.90;;;;;;5029964;28;20382;-68
2022/09/21 04:24:20;;;;;;;6.95;3.42;;;4.00;99.90;;;;;;5029592;28;20025;-69
2022/09/21 04:26:46;;;;;;;14.07;3.25;;;4.00;99.90;;;;;;5028008;28;20390;-68
2022/09/21 04:29:15;;;;;;;7.72;2.92;;;4.00;99.90;;;;;;5029366;28;20039;-68
2022/09/21 04:31:41;;;;;;;6.78;3.10;;;3.90;99.90;;;;;;5043783;28;20631;-67
2022/09/21 04:34:10;;;;;;;5.53;3.03;;;3.90;99.90;;;;;;5029565;28;20442;-69
2022/09/21 04:36:36;;;;;;;7.35;3.15;;;3.90;99.90;;;;;;5028863;28;20044;-70
2022/09/21 04:39:03;;;;;;;6.82;3.10;;;3.90;99.90;;;;;;5029702;28;20561;-70
2022/09/21 04:41:28;;;;;;;47.63;3.10;;;3.80;99.90;;;;;;5028427;28;20111;-68
2022/09/21 04:43:54;;;;;;;16.27;3.40;;;3.80;99.90;;;;;;5029540;28;20069;-68
2022/09/21 04:46:20;;;;;;;66.72;4.15;;;3.70;99.90;;;;;;5029646;28;20021;-75
2022/09/21 04:48:47;;;;;;;6.10;2.28;;;3.70;99.90;;;;;;5028925;28;20041;-68
2022/09/21 04:51:13;;;;;;;27.33;2.90;;;3.70;99.90;;;;;;5029353;28;20040;-70
2022/09/21 04:53:41;;;;;;;11.43;1.95;;;3.70;99.90;;;;;;5028682;28;20021;-68
2022/09/21 04:56:08;;;;;;;7.93;2.40;;;3.70;99.90;;;;;;5029433;28;20021;-69
2022/09/21 04:58:34;;;;;;;4.97;2.55;;;3.70;99.90;;;;;;5028137;28;20029;-69
2022/09/21 05:01:01;;;;;;;5.47;2.53;;;3.70;99.90;;;;;;5029456;28;20378;-69
2022/09/21 05:03:26;;;;;;;4.15;2.20;;;3.60;99.90;;;;;;5028544;28;20061;-69
2022/09/21 05:05:54;;;;;;;10.63;2.58;;;3.60;99.90;;;;;;5029411;28;20501;-71
2022/09/21 05:10:01;;;;;;;7.15;2.47;;;3.60;99.90;;;;;;5029308;28;20113;-68
2022/09/21 05:11:09;;;;;;;5.97;2.75;;;3.60;99.90;;;;;;5028928;28;20113;-69
2022/09/21 05:13:35;;;;;;;21.42;2.70;;;3.60;99.90;;;;;;5028479;28;20049;-69
2022/09/21 05:16:00;;;;;;;16.15;3.10;;;3.60;99.90;;;;;;5029364;28;20034;-69
2022/09/21 05:18:26;;;;;;;7.45;3.05;;;3.60;99.90;;;;;;5028390;28;20037;-72
2022/09/21 05:20:56;;;;;;;6.25;3.42;;;3.50;99.90;;;;;;5031344;28;20032;-70
2022/09/21 05:23:28;;;;;;;12.05;3.40;;;3.50;99.90;;;;;;5032837;28;20214;-75
2022/09/21 05:25:54;;;;;;;11.25;3.33;;;3.40;99.90;;;;;;5033090;28;20057;-68
2022/09/21 05:28:21;;;;;;;5.78;3.08;;;3.50;99.90;;;;;;5033117;28;20117;-69
2022/09/21 05:31:21;;;;;;;13.50;3.00;;;3.50;99.90;;;;;;5032191;28;20037;-69
2022/09/21 05:33:53;;;;;;;26.77;2.97;;;3.50;99.90;;;;;;5012252;28;20092;-69
2022/09/21 05:36:40;;;;;;;6.93;3.28;;;3.60;99.90;;;;;;5013213;28;20529;-68
2022/09/21 05:39:07;;;;;;;74.28;3.95;;;3.70;99.90;;;;;;5013136;28;20041;-69
2022/09/21 05:41:33;;;;;;;27.88;3.15;;;3.70;99.90;;;;;;5011930;28;20478;-71
2022/09/21 05:43:59;;;;;;;13.50;3.10;;;3.80;99.90;;;;;;5012706;28;20374;-68
2022/09/21 05:46:33;;;;;;;36.03;3.28;;;3.90;99.90;;;;;;5012735;28;20520;-76
2022/09/21 05:49:04;;;;;;;7.40;3.28;;;3.90;99.90;;;;;;5023288;28;20041;-68
2022/09/21 05:52:01;;;;;;;6.22;3.15;;;3.90;99.90;;;;;;5033146;28;20446;-68
2022/09/21 05:54:26;;;;;;;20.45;3.78;;;3.90;99.90;;;;;;5032093;28;20032;-73
2022/09/21 05:57:06;;;;;;;7.63;3.47;;;4.00;99.90;;;;;;5032623;28;20038;-69
2022/09/21 05:59:47;;;;;;;6.95;3.33;;;4.10;99.90;;;;;;5031520;28;20033;-70
2022/09/21 06:02:18;;;;;;;10.63;3.58;;;4.10;99.90;;;;;;5032169;28;20064;-68
2022/09/21 06:04:46;;;;;;;9.65;3.83;;;4.10;99.90;;;;;;5031425;28;20132;-69
2022/09/21 06:07:11;;;;;;;10.40;3.25;;;4.10;99.90;;;;;;5031627;28;20075;-68
2022/09/21 06:09:37;;;;;;;44.03;3.45;;;4.10;99.90;;;;;;5031436;28;20030;-71
2022/09/21 06:12:03;;;;;;;58.28;4.03;;;4.10;99.90;;;;;;5032038;28;20068;-69
2022/09/21 06:14:29;;;;;;;14.85;3.88;;;4.20;99.90;;;;;;5031452;28;20025;-73
2022/09/21 06:16:54;;;;;;;7.18;3.80;;;4.30;99.90;;;;;;5032174;28;20121;-68
2022/09/21 06:19:20;;;;;;;39.78;5.00;;;4.20;99.90;;;;;;5032247;28;20087;-67
2022/09/21 06:21:46;;;;;;;9.35;4.80;;;4.30;99.90;;;;;;5031133;28;20208;-69
2022/09/21 06:24:11;;;;;;;8.80;3.80;;;4.40;99.90;;;;;;5032030;28;20441;-69
2022/09/21 06:26:37;;;;;;;12.90;5.32;;;4.50;99.90;;;;;;5031199;28;20065;-68
2022/09/21 06:29:03;;;;;;;30.55;3.90;;;4.60;99.90;;;;;;5031759;28;20037;-67
2022/09/21 06:31:29;;;;;;;15.95;6.18;;;4.60;99.90;;;;;;5029811;28;20083;-75
2022/09/21 06:33:55;;;;;;;18.27;8.20;;;4.70;99.90;;;;;;5031658;28;20382;-68
2022/09/21 06:36:20;;;;;;;23.38;9.65;;;4.80;99.90;;;;;;5030254;28;20025;-68
2022/09/21 06:38:46;;;;;;;8.95;3.97;;;5.00;99.90;;;;;;5030751;28;20095;-69
2022/09/21 06:41:12;;;;;;;6.63;3.08;;;5.20;99.90;;;;;;5031437;28;20053;-67
2022/09/21 06:43:37;;;;;;;7.53;4.97;;;5.20;99.90;;;;;;5030476;28;20488;-70
2022/09/21 06:46:03;;;;;;;7.47;3.63;;;5.40;99.90;;;;;;5031895;28;20025;-69
2022/09/21 06:48:31;;;;;;;5.78;2.90;;;5.50;99.90;;;;;;5030882;28;20068;-75
2022/09/21 06:51:01;;;;;;;14.68;3.10;;;5.60;99.90;;;;;;5031271;28;20025;-69
2022/09/21 06:53:28;;;;;;;9.35;2.80;;;5.60;99.90;;;;;;5030269;28;20360;-68
2022/09/21 06:56:00;;;;;;;5.88;3.10;;;5.70;99.90;;;;;;5030747;28;20121;-68
2022/09/21 06:58:26;;;;;;;6.60;3.25;;;5.70;99.90;;;;;;5031163;28;20466;-69
2022/09/21 07:00:52;;;;;;;7.97;3.30;;;5.80;99.90;;;;;;5030132;28;20037;-67
2022/09/21 07:03:18;;;;;;;9.18;3.17;;;5.80;99.90;;;;;;5031374;28;20026;-69
2022/09/21 07:05:45;;;;;;;6.43;3.50;;;5.90;99.90;;;;;;5030383;28;20026;-69
2022/09/21 07:08:10;;;;;;;6.60;3.38;;;6.00;99.90;;;;;;5031208;28;20458;-68
2022/09/21 07:10:36;;;;;;;6.35;3.30;;;6.20;99.90;;;;;;5030102;28;20029;-68
2022/09/21 07:13:04;;;;;;;5.82;3.72;;;6.40;99.90;;;;;;5030962;28;20026;-69
2022/09/21 07:15:30;;;;;;;7.95;4.03;;;6.60;99.90;;;;;;5030735;28;20060;-74
2022/09/21 07:17:55;;;;;;;7.47;3.72;;;6.80;99.90;;;;;;5030653;28;20037;-67
2022/09/21 07:20:22;;;;;;;7.82;3.63;;;6.90;99.90;;;;;;5031006;28;20476;-69
2022/09/21 07:22:48;;;;;;;7.13;3.90;;;6.90;99.90;;;;;;5030115;28;20424;-68
2022/09/21 07:25:14;;;;;;;6.75;3.95;;;7.20;99.90;;;;;;5031036;28;20025;-68
2022/09/21 07:27:40;;;;;;;9.25;4.68;;;7.40;99.90;;;;;;5030021;28;20041;-68
2022/09/21 07:30:06;;;;;;;7.25;3.97;;;7.60;99.90;;;;;;5030686;28;20033;-68
2022/09/21 07:32:32;;;;;;;12.25;4.93;;;7.80;99.90;;;;;;5030006;28;20068;-75
2022/09/21 07:34:58;;;;;;;11.07;5.07;;;8.00;99.90;;;;;;5030580;28;20025;-67
2022/09/21 07:37:24;;;;;;;14.98;7.35;;;8.30;99.90;;;;;;5030707;28;20053;-67
2022/09/21 07:39:51;;;;;;;13.15;5.10;;;8.50;99.90;;;;;;5029944;28;20943;-67
2022/09/21 07:42:19;;;;;;;9.13;4.72;;;8.70;99.90;;;;;;5030565;28;20125;-67
2022/09/21 07:44:45;;;;;;;9.10;4.22;;;8.90;99.90;;;;;;5029439;28;20033;-68
2022/09/21 07:47:12;;;;;;;8.00;4.20;;;9.00;99.90;;;;;;5030327;28;20116;-67
2022/09/21 07:49:38;;;;;;;10.32;4.47;;;9.20;99.90;;;;;;5029645;28;20052;-68
2022/09/21 07:52:04;;;;;;;12.13;5.35;;;9.40;99.90;;;;;;5030458;28;20021;-67
2022/09/21 07:54:32;;;;;;;9.70;4.85;;;9.50;99.90;;;;;;5030369;28;20033;-68
2022/09/21 07:59:42;;;;;;;9.15;5.10;;;9.80;99.90;;;;;;5029103;28;20524;-67
2022/09/21 08:02:08;;;;;;;11.18;4.95;;;10.10;99.90;;;;;;5029927;28;20041;-68
2022/09/21 08:04:33;;;;;;;13.73;5.25;;;10.20;99.90;;;;;;5029687;28;20033;-74
2022/09/21 08:06:59;;;;;;;13.65;5.10;;;10.50;99.90;;;;;;5029957;28;20037;-67
2022/09/21 08:09:24;;;;;;;10.48;5.43;;;10.60;99.90;;;;;;5030152;28;20113;-67
2022/09/21 08:11:51;;;;;;;9.02;5.10;;;10.70;99.90;;;;;;5029047;28;20033;-69
2022/09/21 08:14:20;;;;;;;9.70;4.97;;;10.80;99.90;;;;;;5030468;28;20029;-68
2022/09/21 08:16:46;;;;;;;9.98;4.47;;;10.90;99.90;;;;;;5029144;28;20026;-67
2022/09/21 08:19:13;;;;;;;10.30;4.30;;;11.00;99.90;;;;;;5029998;28;20072;-68
2022/09/21 08:21:39;;;;;;;6.80;3.67;;;11.10;99.90;;;;;;5029036;28;20056;-67
2022/09/21 08:24:05;;;;;;;7.22;3.50;;;11.30;99.90;;;;;;5029855;28;20026;-67
2022/09/21 08:26:32;;;;;;;7.25;3.97;;;11.40;99.90;;;;;;5029827;28;20387;-68
2022/09/21 08:28:58;;;;;;;7.63;3.20;;;11.60;99.90;;;;;;5029040;28;20120;-67
2022/09/21 08:31:24;;;;;;;4.45;2.72;;;11.60;99.90;;;;;;5029281;28;20033;-68
2022/09/21 08:33:51;;;;;;;8.23;3.22;;;11.70;99.90;;;;;;5028967;28;20033;-68
2022/09/21 08:36:18;;;;;;;6.15;3.00;;;11.70;99.90;;;;;;5029593;28;20033;-67
2022/09/21 08:38:44;;;;;;;6.45;3.28;;;11.80;99.90;;;;;;5028292;28;20033;-68
2022/09/21 08:41:18;;;;;;;6.00;2.55;;;11.90;99.90;;;;;;5029627;28;20375;-66
2022/09/21 08:43:50;;;;;;;7.45;2.63;;;12.00;99.90;;;;;;5028706;28;20112;-66
2022/09/21 08:46:19;;;;;;;9.55;2.50;;;12.10;99.90;;;;;;5028514;28;20029;-66
2022/09/21 08:49:22;;;;;;;5.15;2.33;;;12.00;99.90;;;;;;5028720;28;20048;-67
2022/09/21 08:51:59;;;;;;;6.82;2.35;;;12.00;99.90;;;;;;5003130;28;20049;-68
2022/09/21 08:54:31;;;;;;;5.15;1.70;;;12.10;99.90;;;;;;5008712;28;20057;-65
2022/09/21 08:56:57;;;;;;;3.50;1.65;;;12.30;99.90;;;;;;5027340;28;20025;-67
2022/09/21 08:59:23;;;;;;;6.93;2.10;;;12.40;99.90;;;;;;5029462;28;20041;-68
2022/09/21 09:02:03;;;;;;;6.32;1.90;;;12.80;99.90;;;;;;5028148;28;20109;-67
2022/09/21 09:05:10;;;;;;;2.47;1.20;;;12.90;99.90;;;;;;5027659;28;20469;-69
2022/09/21 09:07:58;;;;;;;6.38;1.30;;;13.10;99.90;;;;;;5006405;28;20513;-72
2022/09/21 09:10:37;;;;;;;5.35;1.20;;;13.10;99.90;;;;;;5029867;28;20038;-67
2022/09/21 09:13:30;;;;;;;3.85;1.27;;;13.30;99.90;;;;;;5028840;28;20029;-69
2022/09/21 09:16:12;;;;;;;5.32;1.40;;;13.30;99.90;;;;;;5028956;28;20030;-68
2022/09/21 09:18:58;;;;;;;3.35;1.13;;;13.60;99.90;;;;;;5028909;28;20037;-73
2022/09/21 09:21:34;;;;;;;4.68;1.52;;;13.90;99.90;;;;;;5029188;28;20025;-68
2022/09/21 09:24:29;;;;;;;3.15;1.10;;;13.80;99.90;;;;;;5028626;28;20185;-67
2022/09/21 09:27:14;;;;;;;3.85;1.45;;;13.90;99.90;;;;;;5028277;28;20029;-67
2022/09/21 09:29:51;;;;;;;4.22;1.63;;;14.00;99.90;;;;;;5028347;28;20577;-72
2022/09/21 09:32:17;;;;;;;2.90;1.23;;;14.00;99.90;;;;;;5028950;28;20065;-66
2022/09/21 09:34:56;;;;;;;3.42;0.70;;;13.80;99.90;;;;;;5043613;28;20501;-67
2022/09/21 09:37:29;;;;;;;1.45;0.82;;;13.60;99.90;;;;;;5044520;28;20040;-67
2022/09/21 09:39:56;;;;;;;2.15;0.88;;;13.60;99.90;;;;;;5028644;28;20021;-66
2022/09/21 09:42:22;;;;;;;2.35;1.40;;;13.50;99.90;;;;;;5029079;28;20088;-68
2022/09/21 09:44:47;;;;;;;4.45;0.77;;;13.40;99.90;;;;;;5028225;28;20462;-68
2022/09/21 09:47:51;;;;;;;1.30;0.40;;;13.40;99.90;;;;;;5028992;28;20039;-66
2022/09/21 09:50:37;;;;;;;2.65;0.70;;;13.40;99.90;;;;;;5028929;28;20390;-67
2022/09/21 09:53:15;;;;;;;1.70;0.80;;;13.10;99.90;;;;;;5028401;28;20053;-68
2022/09/21 09:55:45;;;;;;;5.43;0.80;;;13.00;99.90;;;;;;5027191;28;20025;-71
2022/09/21 09:58:48;;;;;;;3.78;0.90;;;13.00;99.90;;;;;;5029000;28;20386;-66
2022/09/21 10:02:00;;;;;;;2.75;0.57;;;13.10;99.90;;;;;;5028854;28;20029;-67
2022/09/21 10:04:26;;;;;;;5.15;0.82;;;13.10;99.90;;;;;;5006034;28;20045;-68
2022/09/21 10:06:52;;;;;;;1.58;0.60;;;13.10;99.90;;;;;;5007528;28;20030;-67
2022/09/21 10:09:24;;;;;;;1.55;0.90;;;13.20;99.90;;;;;;4993431;28;20049;-67
2022/09/21 10:11:51;;;;;;;3.42;0.90;;;13.30;99.90;;;;;;5009172;28;20072;-68
2022/09/21 10:14:25;;;;;;;0.95;0.52;;;13.50;99.90;;;;;;5009808;28;20078;-68
2022/09/21 10:16:51;;;;;;;1.17;0.50;;;13.40;99.90;;;;;;5008782;28;20041;-67
2022/09/21 10:19:24;;;;;;;2.67;0.90;;;13.30;99.90;;;;;;5009726;28;20050;-69
2022/09/21 10:21:58;;;;;;;2.17;0.60;;;13.50;99.90;;;;;;5008623;28;20034;-66
2022/09/21 10:24:37;;;;;;;2.35;0.70;;;14.10;99.90;;;;;;5009676;28;20065;-68
2022/09/21 10:27:10;;;;;;;2.30;0.93;;;14.20;99.90;;;;;;5008727;28;20065;-67
2022/09/21 10:29:41;;;;;;;1.33;0.63;;;14.00;99.90;;;;;;5009361;28;20137;-67
2022/09/21 10:32:12;;;;;;;2.33;0.63;;;13.80;99.90;;;;;;5008908;28;20149;-69
2022/09/21 10:34:43;;;;;;;2.70;0.90;;;13.70;99.90;;;;;;5016671;28;20042;-68
2022/09/21 10:37:30;;;;;;;4.57;0.70;;;13.80;99.90;;;;;;5030826;28;20488;-67
2022/09/21 10:39:58;;;;;;;2.35;0.90;;;14.10;99.90;;;;;;5030742;28;20506;-67
2022/09/21 10:42:24;;;;;;;2.28;0.60;;;13.70;99.90;;;;;;5031674;28;20026;-68
2022/09/21 10:45:12;;;;;;;3.17;1.15;;;13.70;99.90;;;;;;5030887;28;20251;-68
2022/09/21 10:47:42;;;;;;;2.30;0.70;;;13.50;99.90;;;;;;5030805;28;20136;-69
2022/09/21 10:50:24;;;;;;;2.92;0.90;;;13.70;99.90;;;;;;5031063;28;20100;-69
2022/09/21 10:52:55;;;;;;;2.50;0.85;;;13.80;99.90;;;;;;5030886;28;20022;-66
2022/09/21 10:55:23;;;;;;;6.07;1.00;;;13.70;99.90;;;;;;5030880;28;20030;-66
2022/09/21 10:57:51;;;;;;;4.03;0.90;;;13.60;99.90;;;;;;5030666;28;20044;-68
2022/09/21 11:00:23;;;;;;;3.47;0.80;;;13.50;99.90;;;;;;5031508;28;20133;-68
2022/09/21 11:02:49;;;;;;;2.67;0.55;;;13.80;99.90;;;;;;5030437;28;20036;-65
2022/09/21 11:05:26;;;;;;;1.65;0.60;;;13.90;99.90;;;;;;5031402;28;20024;-66
2022/09/21 11:08:08;;;;;;;4.97;0.70;;;13.70;99.90;;;;;;5030542;28;20598;-66
2022/09/21 11:11:02;;;;;;;2.05;0.85;;;13.70;99.90;;;;;;5031394;28;20488;-66
2022/09/21 11:13:46;;;;;;;5.25;0.90;;;13.80;99.90;;;;;;5011423;28;20036;-70
2022/09/21 11:16:40;;;;;;;2.08;0.98;;;13.80;99.90;;;;;;5011261;28;20036;-66
2022/09/21 11:19:30;;;;;;;2.38;0.60;;;14.10;99.90;;;;;;5009922;28;20482;-67
2022/09/21 11:22:08;;;;;;;3.10;0.68;;;14.20;99.90;;;;;;5025811;28;20026;-66
2022/09/21 11:24:44;;;;;;;3.08;0.80;;;13.90;99.90;;;;;;5011286;28;20022;-70
2022/09/21 11:27:38;;;;;;;2.67;0.70;;;13.80;99.90;;;;;;5010788;28;20021;-67
2022/09/21 11:30:17;;;;;;;3.83;0.70;;;14.30;99.90;;;;;;5029789;28;20075;-69
2022/09/21 11:33:14;;;;;;;2.33;0.70;;;15.30;99.90;;;;;;5030459;28;20191;-68
2022/09/21 11:35:58;;;;;;;1.52;0.73;;;15.30;99.90;;;;;;5029399;28;20028;-67
2022/09/21 11:38:38;;;;;;;1.85;0.57;;;14.90;99.90;;;;;;5030794;28;20033;-67
2022/09/21 11:41:19;;;;;;;5.20;0.73;;;14.50;99.90;;;;;;5029940;28;20444;-70
2022/09/21 11:44:24;;;;;;;5.80;0.80;;;14.40;99.90;;;;;;5030235;28;20064;-72
2022/09/21 11:46:53;;;;;;;1.33;0.47;;;14.80;99.90;;;;;;5029588;28;20029;-67
2022/09/21 11:50:00;;;;;;;1.45;0.85;;;15.00;99.90;;;;;;5030455;28;20033;-69
2022/09/21 11:52:47;;;;;;;1.92;0.90;;;14.90;99.90;;;;;;5030501;28;20037;-68
2022/09/21 11:55:31;;;;;;;2.05;0.93;;;14.60;99.90;;;;;;5030283;28;20030;-69
2022/09/21 11:58:23;;;;;;;2.22;0.88;;;14.80;99.90;;;;;;5029585;28;20091;-67
2022/09/21 12:01:10;;;;;;;1.90;0.80;;;15.40;99.90;;;;;;5029731;28;20037;-76
2022/09/21 12:03:46;;;;;;;2.17;1.00;;;15.90;99.90;;;;;;5030060;28;20129;-70
2022/09/21 12:06:41;;;;;;;4.50;1.15;;;16.10;99.90;;;;;;5029741;28;20025;-68
2022/09/21 12:09:34;;;;;;;4.72;0.80;;;16.40;99.90;;;;;;5029267;28;20528;-69
2022/09/21 12:12:03;;;;;;;2.53;0.88;;;16.70;99.90;;;;;;5029398;28;20136;-69
2022/09/21 12:15:06;;;;;;;1.80;0.73;;;16.50;99.90;;;;;;5030059;28;20025;-66
2022/09/21 12:17:51;;;;;;;2.40;0.70;;;16.40;99.90;;;;;;5030093;28;20029;-71
2022/09/21 12:20:44;;;;;;;2.97;0.90;;;16.70;99.90;;;;;;5028493;28;20696;-69
2022/09/21 12:23:42;;;;;;;2.58;0.70;;;16.90;99.90;;;;;;5029756;28;20180;-67
2022/09/21 12:26:14;;;;;;;1.10;0.70;;;17.10;98.30;;;;;;5030182;28;20025;-67
2022/09/21 12:28:50;;;;;;;1.50;0.70;;;16.70;98.30;;;;;;5030056;28;20052;-67
2022/09/21 12:31:21;;;;;;;1.60;0.70;;;16.60;98.20;;;;;;5029167;28;20033;-68
2022/09/21 12:34:05;;;;;;;2.50;0.65;;;16.40;96.90;;;;;;5029686;28;20053;-74
2022/09/21 12:36:43;;;;;;;1.05;0.60;;;16.40;97.70;;;;;;5029599;28;20033;-66
2022/09/21 12:39:21;;;;;;;3.25;0.75;;;16.90;97.80;;;;;;5028743;28;20017;-66
2022/09/21 12:41:52;;;;;;;4.07;1.13;;;17.40;98.80;;;;;;5029423;28;20460;-69
2022/09/21 12:44:32;;;;;;;4.25;1.00;;;17.40;95.40;;;;;;5029110;28;20026;-69
2022/09/21 12:47:08;;;;;;;2.72;0.82;;;17.00;97.10;;;;;;5028342;28;20036;-68
2022/09/21 12:49:40;;;;;;;2.22;0.70;;;16.90;94.60;;;;;;5029619;28;20091;-68
2022/09/21 12:52:07;;;;;;;1.20;0.70;;;16.50;94.60;;;;;;5028327;28;20063;-69
2022/09/21 12:55:00;;;;;;;3.55;1.02;;;16.50;95.40;;;;;;5029227;28;20034;-70
2022/09/21 12:57:33;;;;;;;2.83;1.10;;;16.80;95.60;;;;;;5029547;28;20022;-67
2022/09/21 13:00:19;;;;;;;3.85;0.90;;;16.80;95.40;;;;;;5028562;28;20026;-67
2022/09/21 13:02:48;;;;;;;1.92;0.90;;;16.60;95.70;;;;;;5029475;28;20474;-68
2022/09/21 13:05:27;;;;;;;1.80;0.90;;;16.70;94.70;;;;;;5028805;28;20033;-65
2022/09/21 13:08:03;;;;;;;2.05;0.88;;;16.60;94.20;;;;;;5028862;28;20041;-72
2022/09/21 13:10:30;;;;;;;5.72;1.48;;;16.30;92.10;;;;;;5028077;28;20026;-66
2022/09/21 13:13:03;;;;;;;1.75;0.95;;;16.70;93.70;;;;;;5020154;28;20037;-68
2022/09/21 13:15:41;;;;;;;3.83;1.17;;;17.10;93.80;;;;;;5029313;28;20026;-65
2022/09/21 13:18:35;;;;;;;4.45;0.93;;;17.50;92.90;;;;;;5027497;28;20022;-68
2022/09/21 13:21:17;;;;;;;10.13;1.13;;;17.50;92.90;;;;;;5027609;28;20124;-69